Time;durP1;ratioP1;P1;durP2;ratioP2;P2;SDS_P1;SDS_P2;PMS_P1;PMS_P2;Temp;Humidity;BMP_temperature;BMP_pressure;BME280_temperature;BME280_humidity;BME280_pressure;Samples;Min_cycle;Max_cycle;Signal;HPM_P1;HPM_P2
2021/06/16 00:00:38;;;;;;;;;;;;;;;;;;4944666;28;20299;-90
2021/06/16 00:03:06;;;;;;;;;;;;;;;;;;4969577;28;19922;-91
2021/06/16 00:05:36;;;;;;;;;;;;;;;;;;4948863;28;19966;-91
2021/06/16 00:08:04;;;;;;;;;;;;;;;;;;4951440;28;19922;-91
2021/06/16 00:10:33;;;;;;;;;;;;;;;;;;4939520;28;19929;-92
2021/06/16 00:13:02;;;;;;;;;;;;;;;;;;4959487;28;19926;-92
2021/06/16 00:15:31;;;;;;;;;;;;;;;;;;4958259;28;19929;-92
2021/06/16 00:17:59;;;;;;;;;;;;;;;;;;4953235;28;19926;-92
2021/06/16 00:20:29;;;;;;;;;;;;;;;;;;4958729;28;19926;-89
2021/06/16 00:22:59;;;;;;;;;;;;;;;;;;4981430;28;19922;-92
2021/06/16 00:25:27;;;;;;;;;;;;;;;;;;4969432;28;20641;-91
2021/06/16 00:27:55;;;;;;;;;;;;;;;;;;4939020;28;19937;-91
2021/06/16 00:30:24;;;;;;;;;;;;;;;;;;4961112;28;19922;-92
2021/06/16 00:32:53;;;;;;;;;;;;;;;;;;4950442;28;19929;-89
2021/06/16 00:35:21;;;;;;;;;;;;;;;;;;4962063;28;19922;-90
2021/06/16 00:37:50;;;;;;;;;;;;;;;;;;4954146;28;19926;-92
2021/06/16 00:40:21;;;;;;;;;;;;;;;;;;4953239;28;19922;-92
2021/06/16 00:42:50;;;;;;;;;;;;;;;;;;4963357;28;19926;-92
2021/06/16 00:45:18;;;;;;;;;;;;;;;;;;4956658;28;20441;-91
2021/06/16 00:47:47;;;;;;;;;;;;;;;;;;4936345;28;20306;-91
2021/06/16 00:50:15;;;;;;;;;;;;;;;;;;4954719;28;19944;-92
2021/06/16 00:52:43;;;;;;;;;;;;;;;;;;4957967;28;19929;-91
2021/06/16 00:55:12;;;;;;;;;;;;;;;;;;4947983;28;19921;-90
2021/06/16 00:57:42;;;;;;;;;;;;;;;;;;4952097;28;19926;-92
2021/06/16 01:00:11;;;;;;;;;;;;;;;;;;4957109;28;19941;-91
2021/06/16 01:02:41;;;;;;;;;;;;;;;;;;4970309;28;19926;-91
2021/06/16 01:05:10;;;;;;;;;;;;;;;;;;4974120;28;19929;-92
2021/06/16 01:07:40;;;;;;;;;;;;;;;;;;4966832;28;19936;-93
2021/06/16 01:10:09;;;;;;;;;;;;;;;;;;4992758;28;19929;-92
2021/06/16 01:12:41;;;;;;;;;;;;;;;;;;4968622;28;19930;-93
2021/06/16 01:15:11;;;;;;;;;;;;;;;;;;4982972;28;19929;-91
2021/06/16 01:17:41;;;;;;;;;;;;;;;;;;4979613;28;19936;-90
2021/06/16 01:20:15;;;;;;;;;;;;;;;;;;4961750;28;19930;-92
2021/06/16 01:22:44;;;;;;;;;;;;;;;;;;4953736;28;19931;-92
2021/06/16 01:25:22;;;;;;;;;;;;;;;;;;4972891;28;20408;-91
2021/06/16 01:27:52;;;;;;;;;;;;;;;;;;4945216;28;19930;-90
2021/06/16 01:30:21;;;;;;;;;;;;;;;;;;4961379;28;19926;-91
2021/06/16 01:32:49;;;;;;;;;;;;;;;;;;4956039;28;19977;-91
2021/06/16 01:35:17;;;;;;;;;;;;;;;;;;4955068;28;19946;-91
2021/06/16 01:37:45;;;;;;;;;;;;;;;;;;4955129;28;19926;-91
2021/06/16 01:40:14;;;;;;;;;;;;;;;;;;4963441;28;19929;-92
2021/06/16 01:42:42;;;;;;;;;;;;;;;;;;4971809;28;19922;-90
2021/06/16 01:45:12;;;;;;;;;;;;;;;;;;4944849;28;20170;-92
2021/06/16 01:47:42;;;;;;;;;;;;;;;;;;4948332;28;19922;-92
2021/06/16 01:50:12;;;;;;;;;;;;;;;;;;4958383;28;19930;-91
2021/06/16 01:52:40;;;;;;;;;;;;;;;;;;4962052;28;19952;-92
2021/06/16 01:55:09;;;;;;;;;;;;;;;;;;4973456;28;19922;-92
2021/06/16 01:57:37;;;;;;;;;;;;;;;;;;4945908;28;19922;-92
2021/06/16 02:00:06;;;;;;;;;;;;;;;;;;4952320;28;19954;-93
2021/06/16 02:02:38;;;;;;;;;;;;;;;;;;4948169;28;19922;-92
2021/06/16 02:05:06;;;;;;;;;;;;;;;;;;4949428;28;19999;-93
2021/06/16 02:07:36;;;;;;;;;;;;;;;;;;4941905;28;19930;-92
2021/06/16 02:10:05;;;;;;;;;;;;;;;;;;4942605;28;19922;-92
2021/06/16 02:12:34;;;;;;;;;;;;;;;;;;4961719;28;19933;-92
2021/06/16 02:15:05;;;;;;;;;;;;;;;;;;4973972;28;19938;-91
2021/06/16 02:17:33;;;;;;;;;;;;;;;;;;4974983;28;19926;-91
2021/06/16 02:20:03;;;;;;;;;;;;;;;;;;4962233;28;19933;-92
2021/06/16 02:22:32;;;;;;;;;;;;;;;;;;4957630;28;19942;-92
2021/06/16 02:25:00;;;;;;;;;;;;;;;;;;4945284;28;20378;-93
2021/06/16 02:27:29;;;;;;;;;;;;;;;;;;4954715;28;20401;-92
2021/06/16 02:29:57;;;;;;;;;;;;;;;;;;4950676;28;19921;-92
2021/06/16 02:32:28;;;;;;;;;;;;;;;;;;4978690;28;19929;-92
2021/06/16 02:34:56;;;;;;;;;;;;;;;;;;4955264;28;19929;-92
2021/06/16 02:37:26;;;;;;;;;;;;;;;;;;4976099;28;19933;-92
2021/06/16 02:39:56;;;;;;;;;;;;;;;;;;4945667;28;19922;-92
2021/06/16 02:42:24;;;;;;;;;;;;;;;;;;4955963;28;19921;-92
2021/06/16 02:44:52;;;;;;;;;;;;;;;;;;4964893;28;19922;-91
2021/06/16 02:47:21;;;;;;;;;;;;;;;;;;4950140;28;19929;-92
2021/06/16 02:49:50;;;;;;;;;;;;;;;;;;4962549;28;19929;-93
2021/06/16 02:52:20;;;;;;;;;;;;;;;;;;4968409;28;19922;-93
2021/06/16 02:54:50;;;;;;;;;;;;;;;;;;4973376;28;19933;-92
2021/06/16 02:57:20;;;;;;;;;;;;;;;;;;4959546;28;19929;-93
2021/06/16 02:59:48;;;;;;;;;;;;;;;;;;4952732;28;19966;-94
2021/06/16 03:02:17;;;;;;;;;;;;;;;;;;4952496;28;20329;-92
2021/06/16 03:04:45;;;;;;;;;;;;;;;;;;4948852;28;19930;-91
2021/06/16 03:07:14;;;;;;;;;;;;;;;;;;4966152;28;19922;-92
2021/06/16 03:09:42;;;;;;;;;;;;;;;;;;4993080;28;19921;-91
2021/06/16 03:12:13;;;;;;;;;;;;;;;;;;4972594;28;19910;-92
2021/06/16 03:14:41;;;;;;;;;;;;;;;;;;4964755;28;19932;-93
2021/06/16 03:17:10;;;;;;;;;;;;;;;;;;4963298;28;19918;-91
2021/06/16 03:19:38;;;;;;;;;;;;;;;;;;4953553;28;19925;-93
2021/06/16 03:22:06;;;;;;;;;;;;;;;;;;4950190;28;19922;-92
2021/06/16 03:24:35;;;;;;;;;;;;;;;;;;4960873;28;19922;-92
2021/06/16 03:27:03;;;;;;;;;;;;;;;;;;4959710;28;19926;-93
2021/06/16 03:33:27;;;;;;;;;;;;;;;;;;4988530;28;19926;-93
2021/06/16 03:35:56;;;;;;;;;;;;;;;;;;4960118;28;20305;-93
2021/06/16 03:38:24;;;;;;;;;;;;;;;;;;4939543;29;19926;-93
2021/06/16 03:40:53;;;;;;;;;;;;;;;;;;4977004;28;19940;-91
2021/06/16 03:43:22;;;;;;;;;;;;;;;;;;4944236;28;19945;-93
2021/06/16 03:45:50;;;;;;;;;;;;;;;;;;4960510;28;19933;-92
2021/06/16 03:48:19;;;;;;;;;;;;;;;;;;4958983;28;19921;-91
2021/06/16 03:50:48;;;;;;;;;;;;;;;;;;4955759;28;19922;-92
2021/06/16 03:53:17;;;;;;;;;;;;;;;;;;4952125;28;19929;-93
2021/06/16 03:55:48;;;;;;;;;;;;;;;;;;4955681;28;19930;-93
2021/06/16 03:58:17;;;;;;;;;;;;;;;;;;4953308;28;19922;-93
2021/06/16 04:00:45;;;;;;;;;;;;;;;;;;4942670;28;19922;-93
2021/06/16 04:03:14;;;;;;;;;;;;;;;;;;4952408;28;19930;-92
2021/06/16 04:05:42;;;;;;;;;;;;;;;;;;4958949;28;20294;-92
2021/06/16 04:08:12;;;;;;;;;;;;;;;;;;4952526;28;20347;-92
2021/06/16 04:10:43;;;;;;;;;;;;;;;;;;4958602;28;20186;-92
2021/06/16 04:13:11;;;;;;;;;;;;;;;;;;4967626;28;19922;-91
2021/06/16 04:15:40;;;;;;;;;;;;;;;;;;4948675;28;19930;-92
2021/06/16 04:18:09;;;;;;;;;;;;;;;;;;4956349;28;19974;-92
2021/06/16 04:20:37;;;;;;;;;;;;;;;;;;4960641;28;20366;-90
2021/06/16 04:23:05;;;;;;;;;;;;;;;;;;4948672;28;19933;-90
2021/06/16 04:25:35;;;;;;;;;;;;;;;;;;4978583;28;19910;-90
2021/06/16 04:28:03;;;;;;;;;;;;;;;;;;4972667;28;19911;-92
2021/06/16 04:30:32;;;;;;;;;;;;;;;;;;4966994;28;19922;-90
2021/06/16 04:33:00;;;;;;;;;;;;;;;;;;4961369;28;20404;-91
2021/06/16 04:35:29;;;;;;;;;;;;;;;;;;4981135;28;19922;-92
2021/06/16 04:37:57;;;;;;;;;;;;;;;;;;4964806;28;19945;-91
2021/06/16 04:40:25;;;;;;;;;;;;;;;;;;4967200;28;19926;-91
2021/06/16 04:42:55;;;;;;;;;;;;;;;;;;4952393;29;20429;-91
2021/06/16 04:45:23;;;;;;;;;;;;;;;;;;4966874;28;19929;-91
2021/06/16 04:47:53;;;;;;;;;;;;;;;;;;4948577;28;19933;-91
2021/06/16 04:50:21;;;;;;;;;;;;;;;;;;4980647;28;19922;-91
2021/06/16 04:52:50;;;;;;;;;;;;;;;;;;4960722;28;19922;-92
2021/06/16 04:55:18;;;;;;;;;;;;;;;;;;4950029;28;19921;-91
2021/06/16 04:57:46;;;;;;;;;;;;;;;;;;4949273;28;19922;-89
2021/06/16 05:08:29;;;;;;;;;;;;;;;;;;4979328;28;19914;-91
2021/06/16 05:10:58;;;;;;;;;;;;;;;;;;4954651;29;19922;-92
2021/06/16 05:13:26;;;;;;;;;;;;;;;;;;4937506;28;20382;-91
2021/06/16 05:15:56;;;;;;;;;;;;;;;;;;4964017;28;20436;-90
2021/06/16 05:18:25;;;;;;;;;;;;;;;;;;4955745;28;19921;-92
2021/06/16 05:20:55;;;;;;;;;;;;;;;;;;4944237;28;20282;-92
2021/06/16 05:23:25;;;;;;;;;;;;;;;;;;4962367;28;20374;-92
2021/06/16 05:25:55;;;;;;;;;;;;;;;;;;4947051;28;20297;-89
2021/06/16 05:28:24;;;;;;;;;;;;;;;;;;4948600;28;19929;-90
2021/06/16 05:30:52;;;;;;;;;;;;;;;;;;4973368;28;19922;-93
2021/06/16 05:33:20;;;;;;;;;;;;;;;;;;4963160;28;19944;-91
2021/06/16 05:35:48;;;;;;;;;;;;;;;;;;4961296;28;19922;-91
2021/06/16 05:38:17;;;;;;;;;;;;;;;;;;4943709;28;19926;-92
2021/06/16 05:40:45;;;;;;;;;;;;;;;;;;4943328;28;19926;-93
2021/06/16 05:43:20;;;;;;;;;;;;;;;;;;4947535;29;19923;-94
2021/06/16 05:45:56;;;;;;;;;;;;;;;;;;4959766;28;20744;-92
2021/06/16 05:48:38;;;;;;;;;;;;;;;;;;4966887;28;19937;-92
2021/06/16 05:51:16;;;;;;;;;;;;;;;;;;4943870;29;20437;-94
2021/06/16 05:54:04;;;;;;;;;;;;;;;;;;4957265;28;19922;-92
2021/06/16 05:57:08;;;;;;;;;;;;;;;;;;4965884;28;19926;-95
2021/06/16 05:59:48;;;;;;;;;;;;;;;;;;4969216;28;20013;-94
2021/06/16 06:02:20;;;;;;;;;;;;;;;;;;4962193;28;19929;-93
2021/06/16 06:04:48;;;;;;;;;;;;;;;;;;4944247;28;20001;-95
2021/06/16 06:16:14;;;;;;;;;;;;;;;;;;4813934;29;19928;-93
2021/06/16 06:35:15;;;;;;;;;;;;;;;;;;4856670;29;19927;-93
2021/06/16 06:37:44;;;;;;;;;;;;;;;;;;4831054;29;19932;-91
2021/06/16 06:40:13;;;;;;;;;;;;;;;;;;4846973;29;19935;-90
2021/06/16 06:42:42;;;;;;;;;;;;;;;;;;4845808;29;19931;-92
2021/06/16 06:45:10;;;;;;;;;;;;;;;;;;4833035;29;19932;-92
2021/06/16 06:47:39;;;;;;;;;;;;;;;;;;4889641;29;20306;-93
2021/06/16 06:50:12;;;;;;;;;;;;;;;;;;4929508;29;19926;-91
2021/06/16 06:52:43;;;;;;;;;;;;;;;;;;4944825;28;19910;-90
2021/06/16 06:55:11;;;;;;;;;;;;;;;;;;4931091;29;20291;-91
2021/06/16 06:57:40;;;;;;;;;;;;;;;;;;4914829;29;20418;-92
2021/06/16 07:00:09;;;;;;;;;;;;;;;;;;4910455;29;19926;-92
2021/06/16 07:02:38;;;;;;;;;;;;;;;;;;4899295;29;19922;-91
2021/06/16 07:05:08;;;;;;;;;;;;;;;;;;4931200;29;19926;-91
2021/06/16 07:07:37;;;;;;;;;;;;;;;;;;4930291;29;19923;-91
2021/06/16 07:10:07;;;;;;;;;;;;;;;;;;4939058;29;19923;-91
2021/06/16 07:12:36;;;;;;;;;;;;;;;;;;4934572;29;19923;-89
2021/06/16 07:15:05;;;;;;;;;;;;;;;;;;4927407;29;19927;-90
2021/06/16 07:17:34;;;;;;;;;;;;;;;;;;4926676;28;19923;-91
2021/06/16 07:20:03;;;;;;;;;;;;;;;;;;4920069;29;19930;-91
2021/06/16 07:22:31;;;;;;;;;;;;;;;;;;4937921;29;19923;-91
2021/06/16 07:24:59;;;;;;;;;;;;;;;;;;4904074;29;20012;-91
2021/06/16 07:27:30;;;;;;;;;;;;;;;;;;4937621;29;19930;-91
2021/06/16 07:29:58;;;;;;;;;;;;;;;;;;4894854;29;19933;-90
2021/06/16 07:32:27;;;;;;;;;;;;;;;;;;4914121;29;19922;-90
2021/06/16 07:34:55;;;;;;;;;;;;;;;;;;4911007;29;19922;-90
2021/06/16 07:37:23;;;;;;;;;;;;;;;;;;4905591;29;19923;-90
2021/06/16 07:39:52;;;;;;;;;;;;;;;;;;4905478;29;20279;-90
2021/06/16 07:42:20;;;;;;;;;;;;;;;;;;4890823;29;20302;-89
2021/06/16 07:44:50;;;;;;;;;;;;;;;;;;4925686;29;20294;-90
2021/06/16 07:47:18;;;;;;;;;;;;;;;;;;4916116;29;19929;-90
2021/06/16 07:49:47;;;;;;;;;;;;;;;;;;4920767;29;19922;-90
2021/06/16 07:52:15;;;;;;;;;;;;;;;;;;4916189;29;19930;-90
2021/06/16 07:54:43;;;;;;;;;;;;;;;;;;4903574;29;19923;-89
2021/06/16 07:57:11;;;;;;;;;;;;;;;;;;4900222;29;19930;-89
2021/06/16 07:59:39;;;;;;;;;;;;;;;;;;4915655;29;20004;-89
2021/06/16 08:02:09;;;;;;;;;;;;;;;;;;4919589;29;20299;-90
2021/06/16 08:04:38;;;;;;;;;;;;;;;;;;4899344;29;19922;-92
2021/06/16 08:07:10;;;;;;;;;;;;;;;;;;4926621;29;20292;-89
2021/06/16 08:09:40;;;;;;;;;;;;;;;;;;4901461;29;20441;-88
2021/06/16 08:12:09;;;;;;;;;;;;;;;;;;4911878;29;19930;-89
2021/06/16 08:14:37;;;;;;;;;;;;;;;;;;4922709;29;19930;-89
2021/06/16 08:17:06;;;;;;;;;;;;;;;;;;4903675;29;19930;-90
2021/06/16 08:19:36;;;;;;;;;;;;;;;;;;4918138;29;19922;-89
2021/06/16 08:22:05;;;;;;;;;;;;;;;;;;4902150;29;19934;-90
2021/06/16 08:24:33;;;;;;;;;;;;;;;;;;4911547;29;20291;-91
2021/06/16 08:27:02;;;;;;;;;;;;;;;;;;4917766;29;19930;-89
2021/06/16 08:29:30;;;;;;;;;;;;;;;;;;4923097;28;19926;-89
2021/06/16 08:31:59;;;;;;;;;;;;;;;;;;4931937;29;19922;-89
2021/06/16 08:34:27;;;;;;;;;;;;;;;;;;4936247;29;19929;-89
2021/06/16 08:36:57;;;;;;;;;;;;;;;;;;4948746;28;19983;-89
2021/06/16 08:39:25;;;;;;;;;;;;;;;;;;4970785;28;19910;-89
2021/06/16 08:41:54;;;;;;;;;;;;;;;;;;4950247;28;19916;-88
2021/06/16 08:44:22;;;;;;;;;;;;;;;;;;4974357;28;19922;-89
2021/06/16 08:46:50;;;;;;;;;;;;;;;;;;4926981;28;19931;-91
2021/06/16 08:49:19;;;;;;;;;;;;;;;;;;4941156;29;19941;-90
2021/06/16 08:51:47;;;;;;;;;;;;;;;;;;4943083;29;19922;-89
2021/06/16 08:54:17;;;;;;;;;;;;;;;;;;4942774;29;19922;-88
2021/06/16 08:56:45;;;;;;;;;;;;;;;;;;4940219;28;19922;-89
2021/06/16 08:59:13;;;;;;;;;;;;;;;;;;4934825;29;20449;-89
2021/06/16 09:01:41;;;;;;;;;;;;;;;;;;4924625;29;19922;-89
2021/06/16 09:04:10;;;;;;;;;;;;;;;;;;4948844;28;20408;-88
2021/06/16 09:06:38;;;;;;;;;;;;;;;;;;4939670;28;19941;-88
2021/06/16 09:09:07;;;;;;;;;;;;;;;;;;4942346;28;19937;-88
2021/06/16 09:11:48;;;;;;;;;;;;;;;;;;4936930;29;19930;-90
2021/06/16 09:14:17;;;;;;;;;;;;;;;;;;4962232;28;20283;-89
2021/06/16 09:16:46;;;;;;;;;;;;;;;;;;4951176;28;19934;-90
2021/06/16 09:19:17;;;;;;;;;;;;;;;;;;4957875;28;19922;-89
2021/06/16 09:21:46;;;;;;;;;;;;;;;;;;4959058;28;19930;-90
2021/06/16 09:24:14;;;;;;;;;;;;;;;;;;4940823;28;20318;-89
2021/06/16 09:26:43;;;;;;;;;;;;;;;;;;4938409;29;19926;-90
2021/06/16 09:29:12;;;;;;;;;;;;;;;;;;4926722;28;19922;-90
2021/06/16 09:31:41;;;;;;;;;;;;;;;;;;4919801;29;19929;-90
2021/06/16 09:34:10;;;;;;;;;;;;;;;;;;4927940;29;19930;-90
2021/06/16 09:36:49;;;;;;;;;;;;;;;;;;4965683;28;19937;-90
2021/06/16 09:39:18;;;;;;;;;;;;;;;;;;4922202;29;19929;-90
2021/06/16 09:41:57;;;;;;;;;;;;;;;;;;4908886;29;19922;-89
2021/06/16 09:44:46;;;;;;;;;;;;;;;;;;4949319;28;19922;-91
2021/06/16 09:47:17;;;;;;;;;;;;;;;;;;4929301;28;19929;-91
2021/06/16 09:49:53;;;;;;;;;;;;;;;;;;4926335;29;19922;-91
2021/06/16 10:00:30;;;;;;;;;;;;;;;;;;4959613;28;19918;-92
2021/06/16 10:03:07;;;;;;;;;;;;;;;;;;4928610;29;20003;-91
2021/06/16 10:05:35;;;;;;;;;;;;;;;;;;4948047;28;19932;-91
2021/06/16 10:08:04;;;;;;;;;;;;;;;;;;4933884;29;19928;-91
2021/06/16 10:10:32;;;;;;;;;;;;;;;;;;4953674;29;19926;-91
2021/06/16 10:13:00;;;;;;;;;;;;;;;;;;4935849;28;19923;-91
2021/06/16 10:15:30;;;;;;;;;;;;;;;;;;4955232;29;20375;-91
2021/06/16 10:17:59;;;;;;;;;;;;;;;;;;4932140;28;19922;-91
2021/06/16 10:20:28;;;;;;;;;;;;;;;;;;4942671;28;19925;-91
2021/06/16 10:22:56;;;;;;;;;;;;;;;;;;4936368;29;19953;-91
2021/06/16 10:25:24;;;;;;;;;;;;;;;;;;4944554;29;19923;-92
2021/06/16 10:27:54;;;;;;;;;;;;;;;;;;4943599;29;19940;-93
2021/06/16 10:30:23;;;;;;;;;;;;;;;;;;4954571;28;20335;-92
2021/06/16 10:32:53;;;;;;;;;;;;;;;;;;4925664;29;19930;-93
2021/06/16 10:35:34;;;;;;;;;;;;;;;;;;4953738;28;20275;-93
2021/06/16 10:38:03;;;;;;;;;;;;;;;;;;4943278;28;20342;-93
2021/06/16 10:40:32;;;;;;;;;;;;;;;;;;4928768;29;20338;-93
2021/06/16 10:43:14;;;;;;;;;;;;;;;;;;4938205;29;19923;-93
2021/06/16 10:45:48;;;;;;;;;;;;;;;;;;4924520;29;19929;-93
2021/06/16 10:48:33;;;;;;;;;;;;;;;;;;4938090;28;19922;-89
2021/06/16 10:51:04;;;;;;;;;;;;;;;;;;4932464;28;20398;-90
2021/06/16 10:53:32;;;;;;;;;;;;;;;;;;4939839;28;19928;-89
2021/06/16 10:56:10;;;;;;;;;;;;;;;;;;4921750;28;19926;-89
2021/06/16 10:58:50;;;;;;;;;;;;;;;;;;4921877;29;19927;-89
2021/06/16 11:01:22;;;;;;;;;;;;;;;;;;4929495;29;19922;-90
2021/06/16 11:04:03;;;;;;;;;;;;;;;;;;4939542;29;19929;-89
2021/06/16 11:06:48;;;;;;;;;;;;;;;;;;4936333;29;19929;-89
2021/06/16 11:09:20;;;;;;;;;;;;;;;;;;4937780;29;20403;-90
2021/06/16 11:12:04;;;;;;;;;;;;;;;;;;4918597;29;20399;-89
2021/06/16 11:14:48;;;;;;;;;;;;;;;;;;4936499;28;19926;-89
2021/06/16 11:17:35;;;;;;;;;;;;;;;;;;4932675;29;19922;-89
2021/06/16 11:20:05;;;;;;;;;;;;;;;;;;4912239;28;19923;-90
2021/06/16 11:22:38;;;;;;;;;;;;;;;;;;4928919;28;20365;-90
2021/06/16 11:25:21;;;;;;;;;;;;;;;;;;4935434;28;19933;-90
2021/06/16 11:27:56;;;;;;;;;;;;;;;;;;4941504;28;19922;-89
2021/06/16 11:30:28;;;;;;;;;;;;;;;;;;4931430;29;19923;-89
2021/06/16 11:33:16;;;;;;;;;;;;;;;;;;4973120;28;19936;-88
2021/06/16 11:35:44;;;;;;;;;;;;;;;;;;4956818;28;19910;-87
2021/06/16 11:38:14;;;;;;;;;;;;;;;;;;4942987;28;19926;-91
2021/06/16 11:40:43;;;;;;;;;;;;;;;;;;4929708;29;19929;-88
2021/06/16 11:43:12;;;;;;;;;;;;;;;;;;4931093;28;19926;-90
2021/06/16 11:45:40;;;;;;;;;;;;;;;;;;4933795;29;19923;-91
2021/06/16 11:48:08;;;;;;;;;;;;;;;;;;4917003;28;19972;-91
2021/06/16 11:50:38;;;;;;;;;;;;;;;;;;4934813;29;20000;-90
2021/06/16 11:53:06;;;;;;;;;;;;;;;;;;4918927;28;19922;-91
2021/06/16 11:55:46;;;;;;;;;;;;;;;;;;4935748;29;19926;-91
2021/06/16 11:58:27;;;;;;;;;;;;;;;;;;4919261;29;19923;-91
2021/06/16 12:01:06;;;;;;;;;;;;;;;;;;4934855;29;19929;-91
2021/06/16 12:03:35;;;;;;;;;;;;;;;;;;4924145;29;19931;-91
2021/06/16 12:06:04;;;;;;;;;;;;;;;;;;4940754;29;19930;-89
2021/06/16 12:08:32;;;;;;;;;;;;;;;;;;4936977;29;19926;-88
2021/06/16 12:11:02;;;;;;;;;;;;;;;;;;4938561;28;19977;-88
2021/06/16 12:13:30;;;;;;;;;;;;;;;;;;4916264;29;19938;-89
2021/06/16 12:15:58;;;;;;;;;;;;;;;;;;4935664;28;19929;-90
2021/06/16 12:18:31;;;;;;;;;;;;;;;;;;4917534;29;19922;-89
2021/06/16 12:21:02;;;;;;;;;;;;;;;;;;4917871;29;19922;-88
2021/06/16 12:23:32;;;;;;;;;;;;;;;;;;4915150;29;19926;-88
2021/06/16 12:26:06;;;;;;;;;;;;;;;;;;4916002;28;19931;-89
2021/06/16 12:28:35;;;;;;;;;;;;;;;;;;4937054;28;20298;-89
2021/06/16 12:31:05;;;;;;;;;;;;;;;;;;4936691;28;19937;-89
2021/06/16 12:33:36;;;;;;;;;;;;;;;;;;4931738;28;19926;-90
2021/06/16 12:36:07;;;;;;;;;;;;;;;;;;4922589;28;19922;-90
2021/06/16 12:38:55;;;;;;;;;;;;;;;;;;4932637;29;19930;-88
2021/06/16 12:41:37;;;;;;;;;;;;;;;;;;4949538;29;19922;-88
2021/06/16 12:44:13;;;;;;;;;;;;;;;;;;4934391;28;20283;-89
2021/06/16 12:46:55;;;;;;;;;;;;;;;;;;4933633;28;19934;-89
2021/06/16 12:49:24;;;;;;;;;;;;;;;;;;4918924;29;20063;-89
2021/06/16 12:51:53;;;;;;;;;;;;;;;;;;4938504;28;19921;-89
2021/06/16 12:54:28;;;;;;;;;;;;;;;;;;4974171;28;19911;-87
2021/06/16 12:57:14;;;;;;;;;;;;;;;;;;4961807;28;19910;-88
2021/06/16 12:59:44;;;;;;;;;;;;;;;;;;4925813;29;19934;-90
2021/06/16 13:02:13;;;;;;;;;;;;;;;;;;4936839;29;19937;-90
2021/06/16 13:04:49;;;;;;;;;;;;;;;;;;4937583;29;19923;-91
2021/06/16 13:07:17;;;;;;;;;;;;;;;;;;4923137;29;20306;-89
2021/06/16 13:10:02;;;;;;;;;;;;;;;;;;4940081;29;19933;-90
2021/06/16 13:12:30;;;;;;;;;;;;;;;;;;4957681;28;20401;-89
2021/06/16 13:15:01;;;;;;;;;;;;;;;;;;4921951;28;19922;-88
2021/06/16 13:17:40;;;;;;;;;;;;;;;;;;4918448;29;19923;-89
2021/06/16 13:20:09;;;;;;;;;;;;;;;;;;4935900;28;19933;-89
2021/06/16 13:22:40;;;;;;;;;;;;;;;;;;4921309;28;20391;-88
2021/06/16 13:25:09;;;;;;;;;;;;;;;;;;4923704;29;19929;-89
2021/06/16 13:27:48;;;;;;;;;;;;;;;;;;4922013;29;20291;-89
2021/06/16 13:30:23;;;;;;;;;;;;;;;;;;4938186;28;19926;-88
2021/06/16 13:32:51;;;;;;;;;;;;;;;;;;4951461;28;19922;-89
2021/06/16 13:35:20;;;;;;;;;;;;;;;;;;4920559;28;19922;-89
2021/06/16 13:37:48;;;;;;;;;;;;;;;;;;4923214;28;19922;-90
2021/06/16 13:40:16;;;;;;;;;;;;;;;;;;4949872;28;19930;-89
2021/06/16 13:42:49;;;;;;;;;;;;;;;;;;4918438;28;19929;-90
2021/06/16 13:45:18;;;;;;;;;;;;;;;;;;4923417;29;19922;-89
2021/06/16 13:47:47;;;;;;;;;;;;;;;;;;4920348;29;19929;-89
2021/06/16 13:50:16;;;;;;;;;;;;;;;;;;4935193;29;20274;-89
2021/06/16 13:52:46;;;;;;;;;;;;;;;;;;4931823;29;19929;-90
2021/06/16 13:55:14;;;;;;;;;;;;;;;;;;4919704;28;19937;-90
2021/06/16 13:57:43;;;;;;;;;;;;;;;;;;4934459;29;19923;-89
2021/06/16 14:00:12;;;;;;;;;;;;;;;;;;4947347;28;22197;-89
2021/06/16 14:02:43;;;;;;;;;;;;;;;;;;4927381;29;19922;-89
2021/06/16 14:05:12;;;;;;;;;;;;;;;;;;4948850;29;19922;-90
2021/06/16 14:07:41;;;;;;;;;;;;;;;;;;4935751;29;19929;-90
2021/06/16 14:10:11;;;;;;;;;;;;;;;;;;4949672;28;19922;-90
2021/06/16 14:12:39;;;;;;;;;;;;;;;;;;4917161;28;19937;-89
2021/06/16 14:15:09;;;;;;;;;;;;;;;;;;4948706;28;19930;-91
2021/06/16 14:17:38;;;;;;;;;;;;;;;;;;4916477;29;19929;-89
2021/06/16 14:20:07;;;;;;;;;;;;;;;;;;4933761;29;19922;-90
2021/06/16 14:22:37;;;;;;;;;;;;;;;;;;4926452;29;19923;-90
2021/06/16 14:25:06;;;;;;;;;;;;;;;;;;4944054;28;19927;-90
2021/06/16 14:27:35;;;;;;;;;;;;;;;;;;4919637;28;19927;-89
2021/06/16 14:30:04;;;;;;;;;;;;;;;;;;4933983;29;19933;-90
2021/06/16 14:32:32;;;;;;;;;;;;;;;;;;4953439;28;20432;-90
2021/06/16 14:35:00;;;;;;;;;;;;;;;;;;4922067;28;19923;-90
2021/06/16 14:37:28;;;;;;;;;;;;;;;;;;4947908;28;19934;-89
2021/06/16 14:40:10;;;;;;;;;;;;;;;;;;4944311;28;20386;-91
2021/06/16 14:42:40;;;;;;;;;;;;;;;;;;4916903;29;19933;-90
2021/06/16 14:45:08;;;;;;;;;;;;;;;;;;4919923;29;20390;-90
2021/06/16 14:47:37;;;;;;;;;;;;;;;;;;4944274;28;20406;-90
2021/06/16 14:50:06;;;;;;;;;;;;;;;;;;4915848;28;19933;-90
2021/06/16 14:52:35;;;;;;;;;;;;;;;;;;4932521;29;20394;-90
2021/06/16 14:55:03;;;;;;;;;;;;;;;;;;4937795;29;19929;-90
2021/06/16 14:57:33;;;;;;;;;;;;;;;;;;4916082;29;19927;-90
2021/06/16 15:00:01;;;;;;;;;;;;;;;;;;4927209;28;20310;-90
2021/06/16 15:02:31;;;;;;;;;;;;;;;;;;4947465;28;19945;-90
2021/06/16 15:04:59;;;;;;;;;;;;;;;;;;4928513;28;19930;-88
2021/06/16 15:07:27;;;;;;;;;;;;;;;;;;4930532;28;19923;-88
2021/06/16 15:09:59;;;;;;;;;;;;;;;;;;4934462;28;19922;-88
2021/06/16 15:12:28;;;;;;;;;;;;;;;;;;4935798;29;19930;-87
2021/06/16 15:14:57;;;;;;;;;;;;;;;;;;4947735;28;20377;-90
2021/06/16 15:17:25;;;;;;;;;;;;;;;;;;4935508;28;19929;-91
2021/06/16 15:19:54;;;;;;;;;;;;;;;;;;4932775;29;19945;-90
2021/06/16 15:22:22;;;;;;;;;;;;;;;;;;4913220;29;19922;-90
2021/06/16 15:24:50;;;;;;;;;;;;;;;;;;4917078;29;19922;-90
2021/06/16 15:27:19;;;;;;;;;;;;;;;;;;4917876;28;19930;-90
2021/06/16 15:29:47;;;;;;;;;;;;;;;;;;4933244;29;19922;-90
2021/06/16 15:32:17;;;;;;;;;;;;;;;;;;4918739;29;19923;-90
2021/06/16 15:34:45;;;;;;;;;;;;;;;;;;4944060;28;19922;-89
2021/06/16 15:37:14;;;;;;;;;;;;;;;;;;4949986;29;20684;-88
2021/06/16 15:39:43;;;;;;;;;;;;;;;;;;4949679;28;19922;-90
2021/06/16 15:42:11;;;;;;;;;;;;;;;;;;4934414;28;19929;-90
2021/06/16 15:44:40;;;;;;;;;;;;;;;;;;4919065;29;19927;-90
2021/06/16 15:47:08;;;;;;;;;;;;;;;;;;4910612;29;20330;-90
2021/06/16 15:49:38;;;;;;;;;;;;;;;;;;4943336;28;20225;-90
2021/06/16 15:52:06;;;;;;;;;;;;;;;;;;4944695;28;19923;-90
2021/06/16 15:54:34;;;;;;;;;;;;;;;;;;4929730;28;19923;-90
2021/06/16 15:57:03;;;;;;;;;;;;;;;;;;4915423;28;19926;-91
2021/06/16 15:59:31;;;;;;;;;;;;;;;;;;4928429;29;19929;-91
2021/06/16 16:01:59;;;;;;;;;;;;;;;;;;4916792;29;19930;-90
2021/06/16 16:04:28;;;;;;;;;;;;;;;;;;4916497;29;19922;-90
2021/06/16 16:06:57;;;;;;;;;;;;;;;;;;4916297;29;19929;-90
2021/06/16 16:09:25;;;;;;;;;;;;;;;;;;4936428;28;19937;-90
2021/06/16 16:11:54;;;;;;;;;;;;;;;;;;4917527;28;19922;-91
2021/06/16 16:14:22;;;;;;;;;;;;;;;;;;4911828;29;19967;-89
2021/06/16 16:17:09;;;;;;;;;;;;;;;;;;4931201;28;19923;-90
2021/06/16 16:19:38;;;;;;;;;;;;;;;;;;4917852;28;20393;-90
2021/06/16 16:22:07;;;;;;;;;;;;;;;;;;4929895;29;19929;-90
2021/06/16 16:24:36;;;;;;;;;;;;;;;;;;4947541;28;20298;-90
2021/06/16 16:27:04;;;;;;;;;;;;;;;;;;4934743;28;19929;-90
2021/06/16 16:29:33;;;;;;;;;;;;;;;;;;4916569;28;19930;-91
2021/06/16 16:32:02;;;;;;;;;;;;;;;;;;4948815;28;19910;-87
2021/06/16 16:34:31;;;;;;;;;;;;;;;;;;4967800;28;19929;-91
2021/06/16 16:36:59;;;;;;;;;;;;;;;;;;4949510;29;19910;-91
2021/06/16 16:39:30;;;;;;;;;;;;;;;;;;4959455;28;19918;-92
2021/06/16 16:41:59;;;;;;;;;;;;;;;;;;4959958;28;19931;-89
2021/06/16 16:44:27;;;;;;;;;;;;;;;;;;4953040;28;19940;-91
2021/06/16 16:46:56;;;;;;;;;;;;;;;;;;4963686;28;19911;-92
2021/06/16 16:49:25;;;;;;;;;;;;;;;;;;4942624;28;19918;-92
2021/06/16 16:51:54;;;;;;;;;;;;;;;;;;4962166;28;19911;-92
2021/06/16 16:54:22;;;;;;;;;;;;;;;;;;4944304;29;19913;-92
2021/06/16 16:56:52;;;;;;;;;;;;;;;;;;4956882;29;19933;-91
2021/06/16 16:59:20;;;;;;;;;;;;;;;;;;4951982;28;20394;-90
2021/06/16 17:01:48;;;;;;;;;;;;;;;;;;4965827;29;19923;-92
2021/06/16 17:04:17;;;;;;;;;;;;;;;;;;4973212;28;19910;-93
2021/06/16 17:06:45;;;;;;;;;;;;;;;;;;4982326;28;19912;-91
2021/06/16 17:09:14;;;;;;;;;;;;;;;;;;4969065;28;19921;-93
2021/06/16 17:11:42;;;;;;;;;;;;;;;;;;4962968;28;19906;-93
2021/06/16 17:14:12;;;;;;;;;;;;;;;;;;4968127;28;19913;-92
2021/06/16 17:16:41;;;;;;;;;;;;;;;;;;4968762;29;19907;-93
2021/06/16 17:19:09;;;;;;;;;;;;;;;;;;4949425;29;19913;-93
2021/06/16 17:21:37;;;;;;;;;;;;;;;;;;4949075;29;19922;-92
2021/06/16 17:24:06;;;;;;;;;;;;;;;;;;4965445;28;19932;-91
2021/06/16 17:26:35;;;;;;;;;;;;;;;;;;4968363;28;19929;-90
2021/06/16 17:29:03;;;;;;;;;;;;;;;;;;4971468;28;19929;-91
2021/06/16 17:31:33;;;;;;;;;;;;;;;;;;4956574;28;19932;-93
2021/06/16 17:34:01;;;;;;;;;;;;;;;;;;4945443;28;19910;-92
2021/06/16 17:36:33;;;;;;;;;;;;;;;;;;4958796;28;19910;-92
2021/06/16 17:39:01;;;;;;;;;;;;;;;;;;4954749;28;19913;-91
2021/06/16 17:41:29;;;;;;;;;;;;;;;;;;4966150;28;19916;-93
2021/06/16 17:43:58;;;;;;;;;;;;;;;;;;4950088;28;19906;-90
2021/06/16 17:46:26;;;;;;;;;;;;;;;;;;4968894;28;19916;-93
2021/06/16 17:49:06;;;;;;;;;;;;;;;;;;4970533;28;19910;-93
2021/06/16 17:51:34;;;;;;;;;;;;;;;;;;4967808;29;19926;-92